sensor_id;sensor_type;location;lat;lon;timestamp;P1;durP1;ratioP1;P2;durP2;ratioP2
41687;SDS011;27371;42.686;23.362;2024-02-26T00:00:35;16.17;;;9.48;;
41687;SDS011;27371;42.686;23.362;2024-02-26T00:03:02;17.10;;;9.98;;
41687;SDS011;27371;42.686;23.362;2024-02-26T00:05:28;15.27;;;10.02;;
41687;SDS011;27371;42.686;23.362;2024-02-26T00:07:53;17.75;;;12.50;;
41687;SDS011;27371;42.686;23.362;2024-02-26T00:10:19;22.48;;;13.95;;
41687;SDS011;27371;42.686;23.362;2024-02-26T00:12:44;26.50;;;16.77;;
41687;SDS011;27371;42.686;23.362;2024-02-26T00:15:10;28.30;;;17.45;;
41687;SDS011;27371;42.686;23.362;2024-02-26T00:17:36;35.72;;;19.55;;
41687;SDS011;27371;42.686;23.362;2024-02-26T00:20:04;31.30;;;20.10;;
41687;SDS011;27371;42.686;23.362;2024-02-26T00:22:33;32.83;;;21.90;;
41687;SDS011;27371;42.686;23.362;2024-02-26T00:24:59;28.38;;;19.05;;
41687;SDS011;27371;42.686;23.362;2024-02-26T00:27:25;34.22;;;21.33;;
41687;SDS011;27371;42.686;23.362;2024-02-26T00:29:51;30.75;;;19.48;;
41687;SDS011;27371;42.686;23.362;2024-02-26T00:32:16;29.63;;;19.73;;
41687;SDS011;27371;42.686;23.362;2024-02-26T00:34:42;26.63;;;18.95;;
41687;SDS011;27371;42.686;23.362;2024-02-26T00:37:07;24.83;;;17.88;;
41687;SDS011;27371;42.686;23.362;2024-02-26T00:39:33;32.33;;;19.52;;
41687;SDS011;27371;42.686;23.362;2024-02-26T00:41:58;31.40;;;19.05;;
41687;SDS011;27371;42.686;23.362;2024-02-26T00:44:24;26.80;;;17.45;;
41687;SDS011;27371;42.686;23.362;2024-02-26T00:46:49;30.00;;;18.00;;
41687;SDS011;27371;42.686;23.362;2024-02-26T00:49:15;31.85;;;18.48;;
41687;SDS011;27371;42.686;23.362;2024-02-26T00:51:41;25.00;;;16.15;;
41687;SDS011;27371;42.686;23.362;2024-02-26T00:54:06;24.25;;;16.17;;
41687;SDS011;27371;42.686;23.362;2024-02-26T00:56:32;22.70;;;15.70;;
41687;SDS011;27371;42.686;23.362;2024-02-26T00:58:58;24.35;;;17.48;;
41687;SDS011;27371;42.686;23.362;2024-02-26T01:01:38;26.38;;;16.35;;
41687;SDS011;27371;42.686;23.362;2024-02-26T01:04:04;24.27;;;16.42;;
41687;SDS011;27371;42.686;23.362;2024-02-26T01:06:29;21.77;;;15.50;;
41687;SDS011;27371;42.686;23.362;2024-02-26T01:08:55;31.38;;;18.40;;
41687;SDS011;27371;42.686;23.362;2024-02-26T01:11:20;32.35;;;20.17;;
41687;SDS011;27371;42.686;23.362;2024-02-26T01:13:46;39.10;;;21.98;;
41687;SDS011;27371;42.686;23.362;2024-02-26T01:16:11;31.33;;;21.15;;
41687;SDS011;27371;42.686;23.362;2024-02-26T01:18:37;34.08;;;22.45;;
41687;SDS011;27371;42.686;23.362;2024-02-26T01:21:03;35.08;;;22.98;;
41687;SDS011;27371;42.686;23.362;2024-02-26T01:23:31;33.25;;;21.23;;
41687;SDS011;27371;42.686;23.362;2024-02-26T01:25:57;35.28;;;22.35;;
41687;SDS011;27371;42.686;23.362;2024-02-26T01:28:23;34.13;;;22.73;;
41687;SDS011;27371;42.686;23.362;2024-02-26T01:30:48;36.17;;;22.83;;
41687;SDS011;27371;42.686;23.362;2024-02-26T01:33:14;34.45;;;22.13;;
41687;SDS011;27371;42.686;23.362;2024-02-26T01:35:39;32.00;;;21.83;;
41687;SDS011;27371;42.686;23.362;2024-02-26T01:38:05;35.88;;;22.75;;
41687;SDS011;27371;42.686;23.362;2024-02-26T01:40:30;29.02;;;21.83;;
41687;SDS011;27371;42.686;23.362;2024-02-26T01:42:56;31.98;;;20.92;;
41687;SDS011;27371;42.686;23.362;2024-02-26T01:45:22;34.33;;;22.98;;
41687;SDS011;27371;42.686;23.362;2024-02-26T01:47:50;35.15;;;21.98;;
41687;SDS011;27371;42.686;23.362;2024-02-26T01:50:17;32.15;;;22.00;;
41687;SDS011;27371;42.686;23.362;2024-02-26T01:52:43;30.33;;;21.50;;
41687;SDS011;27371;42.686;23.362;2024-02-26T01:55:11;34.80;;;23.85;;
41687;SDS011;27371;42.686;23.362;2024-02-26T01:57:39;33.47;;;22.63;;
41687;SDS011;27371;42.686;23.362;2024-02-26T02:00:06;34.90;;;22.85;;
41687;SDS011;27371;42.686;23.362;2024-02-26T02:02:32;35.10;;;23.45;;
41687;SDS011;27371;42.686;23.362;2024-02-26T02:04:58;35.53;;;24.77;;
41687;SDS011;27371;42.686;23.362;2024-02-26T02:07:23;31.38;;;23.75;;
41687;SDS011;27371;42.686;23.362;2024-02-26T02:09:50;33.20;;;23.25;;
41687;SDS011;27371;42.686;23.362;2024-02-26T02:12:15;34.33;;;23.83;;
41687;SDS011;27371;42.686;23.362;2024-02-26T02:14:41;36.00;;;24.60;;
41687;SDS011;27371;42.686;23.362;2024-02-26T02:17:06;34.15;;;23.80;;
41687;SDS011;27371;42.686;23.362;2024-02-26T02:19:32;36.97;;;23.23;;
41687;SDS011;27371;42.686;23.362;2024-02-26T02:21:58;36.00;;;23.50;;
41687;SDS011;27371;42.686;23.362;2024-02-26T02:24:23;34.10;;;22.30;;
41687;SDS011;27371;42.686;23.362;2024-02-26T02:26:49;32.15;;;22.90;;
41687;SDS011;27371;42.686;23.362;2024-02-26T02:29:14;33.88;;;22.50;;
41687;SDS011;27371;42.686;23.362;2024-02-26T02:31:40;29.27;;;21.65;;
41687;SDS011;27371;42.686;23.362;2024-02-26T02:34:06;31.17;;;21.42;;
41687;SDS011;27371;42.686;23.362;2024-02-26T02:36:34;30.48;;;21.90;;
41687;SDS011;27371;42.686;23.362;2024-02-26T02:38:59;32.53;;;20.77;;
41687;SDS011;27371;42.686;23.362;2024-02-26T02:41:25;29.40;;;19.25;;
41687;SDS011;27371;42.686;23.362;2024-02-26T02:43:52;30.67;;;19.65;;
41687;SDS011;27371;42.686;23.362;2024-02-26T02:46:18;31.52;;;19.88;;
41687;SDS011;27371;42.686;23.362;2024-02-26T02:48:44;26.25;;;19.88;;
41687;SDS011;27371;42.686;23.362;2024-02-26T02:51:09;34.28;;;21.27;;
41687;SDS011;27371;42.686;23.362;2024-02-26T02:53:35;35.85;;;21.17;;
41687;SDS011;27371;42.686;23.362;2024-02-26T02:56:01;34.90;;;21.17;;
41687;SDS011;27371;42.686;23.362;2024-02-26T02:58:26;30.70;;;20.92;;
41687;SDS011;27371;42.686;23.362;2024-02-26T03:00:52;31.58;;;21.40;;
41687;SDS011;27371;42.686;23.362;2024-02-26T03:03:20;31.60;;;20.98;;
41687;SDS011;27371;42.686;23.362;2024-02-26T03:05:45;32.78;;;21.48;;
41687;SDS011;27371;42.686;23.362;2024-02-26T03:08:11;30.00;;;20.25;;
41687;SDS011;27371;42.686;23.362;2024-02-26T03:10:37;26.85;;;19.65;;
41687;SDS011;27371;42.686;23.362;2024-02-26T03:13:02;28.77;;;20.20;;
41687;SDS011;27371;42.686;23.362;2024-02-26T03:15:28;30.27;;;19.52;;
41687;SDS011;27371;42.686;23.362;2024-02-26T03:17:53;27.45;;;19.13;;
41687;SDS011;27371;42.686;23.362;2024-02-26T03:20:19;29.05;;;20.40;;
41687;SDS011;27371;42.686;23.362;2024-02-26T03:22:45;28.42;;;20.52;;
41687;SDS011;27371;42.686;23.362;2024-02-26T03:25:10;26.42;;;20.15;;
41687;SDS011;27371;42.686;23.362;2024-02-26T03:27:36;32.67;;;21.58;;
41687;SDS011;27371;42.686;23.362;2024-02-26T03:30:02;34.08;;;20.95;;
41687;SDS011;27371;42.686;23.362;2024-02-26T03:32:28;31.50;;;20.60;;
41687;SDS011;27371;42.686;23.362;2024-02-26T03:34:54;29.40;;;20.63;;
41687;SDS011;27371;42.686;23.362;2024-02-26T03:37:20;33.00;;;21.52;;
41687;SDS011;27371;42.686;23.362;2024-02-26T03:39:46;30.08;;;20.33;;
41687;SDS011;27371;42.686;23.362;2024-02-26T03:42:12;28.05;;;21.55;;
41687;SDS011;27371;42.686;23.362;2024-02-26T03:44:37;29.33;;;21.45;;
41687;SDS011;27371;42.686;23.362;2024-02-26T03:47:03;32.40;;;22.77;;
41687;SDS011;27371;42.686;23.362;2024-02-26T03:49:28;32.75;;;22.88;;
41687;SDS011;27371;42.686;23.362;2024-02-26T03:51:54;31.60;;;22.38;;
41687;SDS011;27371;42.686;23.362;2024-02-26T03:54:20;32.85;;;22.25;;
41687;SDS011;27371;42.686;23.362;2024-02-26T03:56:45;33.58;;;23.25;;
41687;SDS011;27371;42.686;23.362;2024-02-26T03:59:11;28.00;;;21.63;;
41687;SDS011;27371;42.686;23.362;2024-02-26T04:01:36;35.33;;;22.05;;
41687;SDS011;27371;42.686;23.362;2024-02-26T04:04:02;33.22;;;22.80;;
41687;SDS011;27371;42.686;23.362;2024-02-26T04:06:27;34.35;;;23.40;;
41687;SDS011;27371;42.686;23.362;2024-02-26T04:08:53;30.77;;;22.10;;
41687;SDS011;27371;42.686;23.362;2024-02-26T04:11:18;35.40;;;24.48;;
41687;SDS011;27371;42.686;23.362;2024-02-26T04:13:45;40.10;;;24.83;;
41687;SDS011;27371;42.686;23.362;2024-02-26T04:16:11;36.30;;;27.00;;
41687;SDS011;27371;42.686;23.362;2024-02-26T04:18:37;50.28;;;30.92;;
41687;SDS011;27371;42.686;23.362;2024-02-26T04:21:04;46.42;;;31.58;;
41687;SDS011;27371;42.686;23.362;2024-02-26T04:23:31;42.83;;;30.33;;
41687;SDS011;27371;42.686;23.362;2024-02-26T04:25:56;45.72;;;30.13;;
41687;SDS011;27371;42.686;23.362;2024-02-26T04:28:22;41.47;;;27.90;;
41687;SDS011;27371;42.686;23.362;2024-02-26T04:30:50;37.22;;;25.90;;
41687;SDS011;27371;42.686;23.362;2024-02-26T04:33:16;39.65;;;27.30;;
41687;SDS011;27371;42.686;23.362;2024-02-26T04:35:41;40.80;;;28.08;;
41687;SDS011;27371;42.686;23.362;2024-02-26T04:38:07;46.47;;;31.33;;
41687;SDS011;27371;42.686;23.362;2024-02-26T04:40:33;52.75;;;33.28;;
41687;SDS011;27371;42.686;23.362;2024-02-26T04:42:58;51.55;;;36.28;;
41687;SDS011;27371;42.686;23.362;2024-02-26T04:45:24;58.33;;;37.15;;
41687;SDS011;27371;42.686;23.362;2024-02-26T04:47:49;55.92;;;37.13;;
41687;SDS011;27371;42.686;23.362;2024-02-26T04:50:15;51.10;;;36.85;;
41687;SDS011;27371;42.686;23.362;2024-02-26T04:52:41;52.20;;;35.55;;
41687;SDS011;27371;42.686;23.362;2024-02-26T04:55:07;52.10;;;34.58;;
41687;SDS011;27371;42.686;23.362;2024-02-26T04:57:33;49.78;;;33.83;;
41687;SDS011;27371;42.686;23.362;2024-02-26T04:59:58;45.13;;;30.63;;
41687;SDS011;27371;42.686;23.362;2024-02-26T05:02:24;38.53;;;28.15;;
41687;SDS011;27371;42.686;23.362;2024-02-26T05:04:49;33.80;;;25.35;;
41687;SDS011;27371;42.686;23.362;2024-02-26T05:07:15;34.03;;;25.17;;
41687;SDS011;27371;42.686;23.362;2024-02-26T05:09:42;33.88;;;24.33;;
41687;SDS011;27371;42.686;23.362;2024-02-26T05:12:09;31.80;;;22.83;;
41687;SDS011;27371;42.686;23.362;2024-02-26T05:14:35;31.30;;;23.05;;
41687;SDS011;27371;42.686;23.362;2024-02-26T05:17:00;32.55;;;22.70;;
41687;SDS011;27371;42.686;23.362;2024-02-26T05:19:26;31.67;;;21.90;;
41687;SDS011;27371;42.686;23.362;2024-02-26T05:21:52;29.13;;;19.77;;
41687;SDS011;27371;42.686;23.362;2024-02-26T05:24:17;28.52;;;21.00;;
41687;SDS011;27371;42.686;23.362;2024-02-26T05:26:45;30.23;;;22.85;;
41687;SDS011;27371;42.686;23.362;2024-02-26T05:29:11;28.52;;;21.65;;
41687;SDS011;27371;42.686;23.362;2024-02-26T05:31:36;29.23;;;20.27;;
41687;SDS011;27371;42.686;23.362;2024-02-26T05:34:02;27.42;;;20.00;;
41687;SDS011;27371;42.686;23.362;2024-02-26T05:36:27;30.00;;;21.65;;
41687;SDS011;27371;42.686;23.362;2024-02-26T05:38:58;33.90;;;22.88;;
41687;SDS011;27371;42.686;23.362;2024-02-26T05:41:24;31.08;;;21.35;;
41687;SDS011;27371;42.686;23.362;2024-02-26T05:43:52;31.45;;;21.70;;
41687;SDS011;27371;42.686;23.362;2024-02-26T05:46:18;31.48;;;22.00;;
41687;SDS011;27371;42.686;23.362;2024-02-26T05:48:46;33.15;;;21.95;;
41687;SDS011;27371;42.686;23.362;2024-02-26T05:51:13;29.23;;;20.65;;
41687;SDS011;27371;42.686;23.362;2024-02-26T05:53:38;30.38;;;21.52;;
41687;SDS011;27371;42.686;23.362;2024-02-26T05:56:04;28.40;;;21.30;;
41687;SDS011;27371;42.686;23.362;2024-02-26T05:58:30;31.90;;;21.05;;
41687;SDS011;27371;42.686;23.362;2024-02-26T06:00:56;30.13;;;22.13;;
41687;SDS011;27371;42.686;23.362;2024-02-26T06:03:22;36.55;;;23.45;;
41687;SDS011;27371;42.686;23.362;2024-02-26T06:05:47;34.40;;;22.23;;
41687;SDS011;27371;42.686;23.362;2024-02-26T06:08:13;31.30;;;22.17;;
41687;SDS011;27371;42.686;23.362;2024-02-26T06:10:39;31.38;;;22.65;;
41687;SDS011;27371;42.686;23.362;2024-02-26T06:13:05;30.30;;;22.38;;
41687;SDS011;27371;42.686;23.362;2024-02-26T06:15:30;38.88;;;23.50;;
41687;SDS011;27371;42.686;23.362;2024-02-26T06:17:56;37.42;;;23.70;;
41687;SDS011;27371;42.686;23.362;2024-02-26T06:20:21;32.17;;;21.80;;
41687;SDS011;27371;42.686;23.362;2024-02-26T06:22:47;30.55;;;20.00;;
41687;SDS011;27371;42.686;23.362;2024-02-26T06:25:12;30.23;;;20.77;;
41687;SDS011;27371;42.686;23.362;2024-02-26T06:27:38;30.13;;;20.48;;
41687;SDS011;27371;42.686;23.362;2024-02-26T06:30:03;34.33;;;23.73;;
41687;SDS011;27371;42.686;23.362;2024-02-26T06:32:29;34.33;;;24.80;;
41687;SDS011;27371;42.686;23.362;2024-02-26T06:34:55;38.25;;;25.77;;
41687;SDS011;27371;42.686;23.362;2024-02-26T06:37:21;40.20;;;26.10;;
41687;SDS011;27371;42.686;23.362;2024-02-26T06:39:48;41.33;;;25.20;;
41687;SDS011;27371;42.686;23.362;2024-02-26T06:42:13;40.80;;;25.08;;
41687;SDS011;27371;42.686;23.362;2024-02-26T06:44:39;39.47;;;27.30;;
41687;SDS011;27371;42.686;23.362;2024-02-26T06:47:05;32.42;;;25.05;;
41687;SDS011;27371;42.686;23.362;2024-02-26T06:49:30;41.35;;;29.42;;
41687;SDS011;27371;42.686;23.362;2024-02-26T06:51:56;45.45;;;33.38;;
41687;SDS011;27371;42.686;23.362;2024-02-26T06:54:22;49.53;;;35.08;;
41687;SDS011;27371;42.686;23.362;2024-02-26T06:56:47;55.67;;;38.85;;
41687;SDS011;27371;42.686;23.362;2024-02-26T06:59:13;57.38;;;40.28;;
41687;SDS011;27371;42.686;23.362;2024-02-26T07:01:42;49.10;;;32.75;;
41687;SDS011;27371;42.686;23.362;2024-02-26T07:04:08;44.22;;;29.15;;
41687;SDS011;27371;42.686;23.362;2024-02-26T07:06:35;48.33;;;29.65;;
41687;SDS011;27371;42.686;23.362;2024-02-26T07:09:01;40.25;;;27.75;;
41687;SDS011;27371;42.686;23.362;2024-02-26T07:11:27;35.65;;;25.80;;
41687;SDS011;27371;42.686;23.362;2024-02-26T07:13:52;34.28;;;23.77;;
41687;SDS011;27371;42.686;23.362;2024-02-26T07:16:18;47.97;;;32.47;;
41687;SDS011;27371;42.686;23.362;2024-02-26T07:18:43;41.65;;;32.17;;
41687;SDS011;27371;42.686;23.362;2024-02-26T07:21:09;48.70;;;36.70;;
41687;SDS011;27371;42.686;23.362;2024-02-26T07:23:36;68.38;;;58.30;;
41687;SDS011;27371;42.686;23.362;2024-02-26T07:26:02;63.85;;;51.33;;
41687;SDS011;27371;42.686;23.362;2024-02-26T07:28:28;77.97;;;69.05;;
41687;SDS011;27371;42.686;23.362;2024-02-26T07:30:53;82.40;;;71.40;;
41687;SDS011;27371;42.686;23.362;2024-02-26T07:33:19;90.10;;;79.57;;
41687;SDS011;27371;42.686;23.362;2024-02-26T07:35:45;73.38;;;65.00;;
41687;SDS011;27371;42.686;23.362;2024-02-26T07:38:10;59.35;;;46.03;;
41687;SDS011;27371;42.686;23.362;2024-02-26T07:40:38;63.67;;;46.58;;
41687;SDS011;27371;42.686;23.362;2024-02-26T07:43:03;55.38;;;40.17;;
41687;SDS011;27371;42.686;23.362;2024-02-26T07:45:29;54.40;;;32.90;;
41687;SDS011;27371;42.686;23.362;2024-02-26T07:47:54;45.55;;;32.92;;
41687;SDS011;27371;42.686;23.362;2024-02-26T07:50:20;59.25;;;39.42;;
41687;SDS011;27371;42.686;23.362;2024-02-26T07:52:46;58.13;;;39.78;;
41687;SDS011;27371;42.686;23.362;2024-02-26T07:55:11;55.83;;;34.53;;
41687;SDS011;27371;42.686;23.362;2024-02-26T07:57:37;46.55;;;31.10;;
41687;SDS011;27371;42.686;23.362;2024-02-26T08:00:03;46.97;;;32.50;;
41687;SDS011;27371;42.686;23.362;2024-02-26T08:02:32;44.50;;;30.60;;
41687;SDS011;27371;42.686;23.362;2024-02-26T08:04:59;49.13;;;31.30;;
41687;SDS011;27371;42.686;23.362;2024-02-26T08:07:24;44.05;;;27.83;;
41687;SDS011;27371;42.686;23.362;2024-02-26T08:09:50;44.97;;;28.48;;
41687;SDS011;27371;42.686;23.362;2024-02-26T08:12:15;46.95;;;31.58;;
41687;SDS011;27371;42.686;23.362;2024-02-26T08:14:41;43.00;;;29.05;;
41687;SDS011;27371;42.686;23.362;2024-02-26T08:17:08;48.60;;;33.00;;
41687;SDS011;27371;42.686;23.362;2024-02-26T08:19:34;42.05;;;29.48;;
41687;SDS011;27371;42.686;23.362;2024-02-26T08:22:01;41.95;;;25.70;;
41687;SDS011;27371;42.686;23.362;2024-02-26T08:24:26;32.08;;;21.10;;
41687;SDS011;27371;42.686;23.362;2024-02-26T08:26:52;33.15;;;23.30;;
41687;SDS011;27371;42.686;23.362;2024-02-26T08:29:18;31.40;;;20.88;;
41687;SDS011;27371;42.686;23.362;2024-02-26T08:31:44;30.92;;;22.65;;
41687;SDS011;27371;42.686;23.362;2024-02-26T08:34:09;34.28;;;24.42;;
41687;SDS011;27371;42.686;23.362;2024-02-26T08:36:35;33.78;;;23.25;;
41687;SDS011;27371;42.686;23.362;2024-02-26T08:39:01;33.20;;;23.58;;
41687;SDS011;27371;42.686;23.362;2024-02-26T08:41:28;32.40;;;24.08;;
41687;SDS011;27371;42.686;23.362;2024-02-26T08:43:53;33.75;;;24.38;;
41687;SDS011;27371;42.686;23.362;2024-02-26T08:46:19;32.58;;;22.35;;
41687;SDS011;27371;42.686;23.362;2024-02-26T08:48:45;37.55;;;21.10;;
41687;SDS011;27371;42.686;23.362;2024-02-26T08:51:11;30.48;;;21.42;;
41687;SDS011;27371;42.686;23.362;2024-02-26T08:53:36;30.52;;;21.40;;
41687;SDS011;27371;42.686;23.362;2024-02-26T08:56:02;29.25;;;21.55;;
41687;SDS011;27371;42.686;23.362;2024-02-26T08:58:28;27.38;;;20.92;;
41687;SDS011;27371;42.686;23.362;2024-02-26T09:00:54;26.23;;;17.67;;
41687;SDS011;27371;42.686;23.362;2024-02-26T09:03:20;26.40;;;16.05;;
41687;SDS011;27371;42.686;23.362;2024-02-26T09:05:46;24.35;;;17.35;;
41687;SDS011;27371;42.686;23.362;2024-02-26T09:08:11;28.27;;;16.23;;
41687;SDS011;27371;42.686;23.362;2024-02-26T09:10:37;16.73;;;11.27;;
41687;SDS011;27371;42.686;23.362;2024-02-26T09:13:03;14.25;;;9.13;;
41687;SDS011;27371;42.686;23.362;2024-02-26T09:15:29;13.23;;;7.68;;
41687;SDS011;27371;42.686;23.362;2024-02-26T09:17:54;10.38;;;7.72;;
41687;SDS011;27371;42.686;23.362;2024-02-26T09:20:20;13.75;;;6.72;;
41687;SDS011;27371;42.686;23.362;2024-02-26T09:22:47;9.77;;;6.88;;
41687;SDS011;27371;42.686;23.362;2024-02-26T09:25:13;11.75;;;6.70;;
41687;SDS011;27371;42.686;23.362;2024-02-26T09:27:41;11.45;;;6.03;;
41687;SDS011;27371;42.686;23.362;2024-02-26T09:30:08;10.27;;;5.40;;
41687;SDS011;27371;42.686;23.362;2024-02-26T09:32:34;8.52;;;5.80;;
41687;SDS011;27371;42.686;23.362;2024-02-26T09:35:01;10.60;;;5.13;;
41687;SDS011;27371;42.686;23.362;2024-02-26T09:37:26;9.05;;;5.20;;
41687;SDS011;27371;42.686;23.362;2024-02-26T09:39:52;8.60;;;5.10;;
41687;SDS011;27371;42.686;23.362;2024-02-26T09:42:18;8.52;;;5.53;;
41687;SDS011;27371;42.686;23.362;2024-02-26T09:44:44;9.68;;;5.50;;
41687;SDS011;27371;42.686;23.362;2024-02-26T09:47:11;10.07;;;5.70;;
41687;SDS011;27371;42.686;23.362;2024-02-26T09:49:42;6.75;;;4.10;;
41687;SDS011;27371;42.686;23.362;2024-02-26T09:52:08;7.15;;;4.57;;
41687;SDS011;27371;42.686;23.362;2024-02-26T09:54:34;8.35;;;5.07;;
41687;SDS011;27371;42.686;23.362;2024-02-26T09:57:02;6.50;;;4.78;;
41687;SDS011;27371;42.686;23.362;2024-02-26T09:59:29;11.30;;;4.70;;
41687;SDS011;27371;42.686;23.362;2024-02-26T10:02:04;9.40;;;5.13;;
41687;SDS011;27371;42.686;23.362;2024-02-26T10:04:29;9.00;;;4.72;;
41687;SDS011;27371;42.686;23.362;2024-02-26T10:06:56;10.88;;;4.72;;
41687;SDS011;27371;42.686;23.362;2024-02-26T10:09:25;9.77;;;5.13;;
41687;SDS011;27371;42.686;23.362;2024-02-26T10:11:51;8.80;;;4.38;;
41687;SDS011;27371;42.686;23.362;2024-02-26T10:14:16;6.88;;;4.70;;
41687;SDS011;27371;42.686;23.362;2024-02-26T10:16:42;11.82;;;4.55;;
41687;SDS011;27371;42.686;23.362;2024-02-26T10:19:08;7.82;;;4.68;;
41687;SDS011;27371;42.686;23.362;2024-02-26T10:21:36;10.43;;;4.18;;
41687;SDS011;27371;42.686;23.362;2024-02-26T10:24:01;6.47;;;4.53;;
41687;SDS011;27371;42.686;23.362;2024-02-26T10:26:27;7.90;;;4.30;;
41687;SDS011;27371;42.686;23.362;2024-02-26T10:28:53;8.15;;;4.45;;
41687;SDS011;27371;42.686;23.362;2024-02-26T10:31:24;9.05;;;4.13;;
41687;SDS011;27371;42.686;23.362;2024-02-26T10:33:50;7.28;;;4.10;;
41687;SDS011;27371;42.686;23.362;2024-02-26T10:36:21;6.63;;;3.90;;
41687;SDS011;27371;42.686;23.362;2024-02-26T10:38:47;7.68;;;3.85;;
41687;SDS011;27371;42.686;23.362;2024-02-26T10:41:13;6.05;;;4.28;;
41687;SDS011;27371;42.686;23.362;2024-02-26T10:43:42;9.20;;;4.28;;
41687;SDS011;27371;42.686;23.362;2024-02-26T10:46:09;8.88;;;4.30;;
41687;SDS011;27371;42.686;23.362;2024-02-26T10:48:35;8.32;;;4.45;;
41687;SDS011;27371;42.686;23.362;2024-02-26T10:51:00;6.30;;;3.88;;
41687;SDS011;27371;42.686;23.362;2024-02-26T10:53:28;9.32;;;5.70;;
41687;SDS011;27371;42.686;23.362;2024-02-26T10:55:57;7.57;;;4.88;;
41687;SDS011;27371;42.686;23.362;2024-02-26T10:58:25;12.05;;;5.25;;
41687;SDS011;27371;42.686;23.362;2024-02-26T11:00:52;6.43;;;3.95;;
41687;SDS011;27371;42.686;23.362;2024-02-26T11:03:18;8.00;;;4.03;;
41687;SDS011;27371;42.686;23.362;2024-02-26T11:05:50;6.80;;;4.13;;
41687;SDS011;27371;42.686;23.362;2024-02-26T11:08:17;5.80;;;3.92;;
41687;SDS011;27371;42.686;23.362;2024-02-26T11:10:45;7.28;;;4.05;;
41687;SDS011;27371;42.686;23.362;2024-02-26T11:13:13;10.65;;;4.35;;
41687;SDS011;27371;42.686;23.362;2024-02-26T11:15:40;9.48;;;3.90;;
41687;SDS011;27371;42.686;23.362;2024-02-26T11:18:07;7.35;;;4.28;;
41687;SDS011;27371;42.686;23.362;2024-02-26T11:20:34;5.38;;;3.65;;
41687;SDS011;27371;42.686;23.362;2024-02-26T11:23:03;7.15;;;3.78;;
41687;SDS011;27371;42.686;23.362;2024-02-26T11:25:29;10.75;;;3.60;;
41687;SDS011;27371;42.686;23.362;2024-02-26T11:27:55;7.50;;;3.60;;
41687;SDS011;27371;42.686;23.362;2024-02-26T11:30:27;5.65;;;3.35;;
41687;SDS011;27371;42.686;23.362;2024-02-26T11:32:56;5.28;;;3.72;;
41687;SDS011;27371;42.686;23.362;2024-02-26T11:35:22;7.10;;;3.53;;
41687;SDS011;27371;42.686;23.362;2024-02-26T11:37:55;8.15;;;3.80;;
41687;SDS011;27371;42.686;23.362;2024-02-26T11:40:26;5.97;;;3.88;;
41687;SDS011;27371;42.686;23.362;2024-02-26T11:42:52;8.40;;;4.22;;
41687;SDS011;27371;42.686;23.362;2024-02-26T11:50:40;8.07;;;4.57;;
41687;SDS011;27371;42.686;23.362;2024-02-26T11:53:27;7.38;;;4.25;;
41687;SDS011;27371;42.686;23.362;2024-02-26T11:58:39;7.53;;;3.90;;
41687;SDS011;27371;42.686;23.362;2024-02-26T12:06:45;6.53;;;3.72;;
41687;SDS011;27371;42.686;23.362;2024-02-26T12:09:30;8.20;;;4.13;;
41687;SDS011;27371;42.686;23.362;2024-02-26T12:12:03;8.50;;;3.90;;
41687;SDS011;27371;42.686;23.362;2024-02-26T12:14:32;5.10;;;3.38;;
41687;SDS011;27371;42.686;23.362;2024-02-26T12:17:19;8.35;;;3.80;;
41687;SDS011;27371;42.686;23.362;2024-02-26T12:19:46;6.43;;;3.40;;
41687;SDS011;27371;42.686;23.362;2024-02-26T12:22:14;8.00;;;3.55;;
41687;SDS011;27371;42.686;23.362;2024-02-26T12:24:41;7.90;;;3.55;;
41687;SDS011;27371;42.686;23.362;2024-02-26T12:27:07;9.45;;;3.80;;
41687;SDS011;27371;42.686;23.362;2024-02-26T12:29:33;5.90;;;2.58;;
41687;SDS011;27371;42.686;23.362;2024-02-26T12:31:59;6.75;;;2.75;;
41687;SDS011;27371;42.686;23.362;2024-02-26T12:34:27;6.53;;;3.60;;
41687;SDS011;27371;42.686;23.362;2024-02-26T12:36:53;9.55;;;4.03;;
41687;SDS011;27371;42.686;23.362;2024-02-26T12:39:19;11.93;;;4.10;;
41687;SDS011;27371;42.686;23.362;2024-02-26T12:41:46;7.03;;;3.90;;
41687;SDS011;27371;42.686;23.362;2024-02-26T12:44:17;9.02;;;3.30;;
41687;SDS011;27371;42.686;23.362;2024-02-26T12:46:43;10.52;;;3.08;;
41687;SDS011;27371;42.686;23.362;2024-02-26T12:49:08;6.50;;;2.80;;
41687;SDS011;27371;42.686;23.362;2024-02-26T12:51:40;5.97;;;2.75;;
41687;SDS011;27371;42.686;23.362;2024-02-26T12:54:06;7.25;;;2.88;;
41687;SDS011;27371;42.686;23.362;2024-02-26T12:56:34;7.80;;;2.80;;
41687;SDS011;27371;42.686;23.362;2024-02-26T12:58:59;3.95;;;2.28;;
41687;SDS011;27371;42.686;23.362;2024-02-26T13:01:26;7.05;;;2.95;;
41687;SDS011;27371;42.686;23.362;2024-02-26T13:03:53;5.18;;;2.70;;
41687;SDS011;27371;42.686;23.362;2024-02-26T13:06:19;10.25;;;3.33;;
41687;SDS011;27371;42.686;23.362;2024-02-26T13:08:47;7.07;;;2.97;;
41687;SDS011;27371;42.686;23.362;2024-02-26T13:11:12;5.28;;;2.70;;
41687;SDS011;27371;42.686;23.362;2024-02-26T13:13:38;5.47;;;2.90;;
41687;SDS011;27371;42.686;23.362;2024-02-26T13:16:04;7.10;;;3.17;;
41687;SDS011;27371;42.686;23.362;2024-02-26T13:18:33;4.70;;;2.75;;
41687;SDS011;27371;42.686;23.362;2024-02-26T13:21:12;5.72;;;3.13;;
41687;SDS011;27371;42.686;23.362;2024-02-26T13:23:40;8.65;;;2.65;;
41687;SDS011;27371;42.686;23.362;2024-02-26T13:26:06;5.90;;;2.85;;
41687;SDS011;27371;42.686;23.362;2024-02-26T13:28:33;5.97;;;3.05;;
41687;SDS011;27371;42.686;23.362;2024-02-26T13:30:59;6.57;;;2.85;;
41687;SDS011;27371;42.686;23.362;2024-02-26T13:33:29;5.25;;;2.47;;
41687;SDS011;27371;42.686;23.362;2024-02-26T13:35:55;10.00;;;3.17;;
41687;SDS011;27371;42.686;23.362;2024-02-26T13:38:22;6.18;;;2.78;;
41687;SDS011;27371;42.686;23.362;2024-02-26T13:40:48;6.63;;;3.13;;
41687;SDS011;27371;42.686;23.362;2024-02-26T13:43:14;6.60;;;2.88;;
41687;SDS011;27371;42.686;23.362;2024-02-26T13:45:40;5.63;;;2.60;;
41687;SDS011;27371;42.686;23.362;2024-02-26T13:48:07;8.23;;;2.95;;
41687;SDS011;27371;42.686;23.362;2024-02-26T13:50:39;4.95;;;3.03;;
41687;SDS011;27371;42.686;23.362;2024-02-26T13:53:10;7.30;;;2.92;;
41687;SDS011;27371;42.686;23.362;2024-02-26T13:55:36;3.90;;;2.70;;
41687;SDS011;27371;42.686;23.362;2024-02-26T13:58:01;5.45;;;2.83;;
41687;SDS011;27371;42.686;23.362;2024-02-26T14:00:30;4.25;;;2.35;;
41687;SDS011;27371;42.686;23.362;2024-02-26T14:03:00;4.95;;;2.55;;
41687;SDS011;27371;42.686;23.362;2024-02-26T14:05:25;6.70;;;2.80;;
41687;SDS011;27371;42.686;23.362;2024-02-26T14:07:52;6.97;;;3.13;;
41687;SDS011;27371;42.686;23.362;2024-02-26T14:10:18;9.20;;;2.92;;
41687;SDS011;27371;42.686;23.362;2024-02-26T14:12:44;7.47;;;2.60;;
41687;SDS011;27371;42.686;23.362;2024-02-26T14:15:09;7.15;;;2.90;;
41687;SDS011;27371;42.686;23.362;2024-02-26T14:17:35;8.23;;;2.97;;
41687;SDS011;27371;42.686;23.362;2024-02-26T14:20:02;6.13;;;2.50;;
41687;SDS011;27371;42.686;23.362;2024-02-26T14:22:28;8.95;;;2.85;;
41687;SDS011;27371;42.686;23.362;2024-02-26T14:24:55;6.05;;;3.00;;